sensor_id;sensor_type;location;lat;lon;timestamp;P1;durP1;ratioP1;P2;durP2;ratioP2
31760;SDS011;18335;51.486;7.562;2022-12-29T00:00:01;1.52;;;0.70;;
31760;SDS011;18335;51.486;7.562;2022-12-29T00:02:38;2.75;;;0.93;;
31760;SDS011;18335;51.486;7.562;2022-12-29T00:05:05;1.83;;;0.80;;
31760;SDS011;18335;51.486;7.562;2022-12-29T00:07:33;2.80;;;0.80;;
31760;SDS011;18335;51.486;7.562;2022-12-29T00:10:02;1.58;;;0.68;;
31760;SDS011;18335;51.486;7.562;2022-12-29T00:12:29;1.88;;;0.60;;
31760;SDS011;18335;51.486;7.562;2022-12-29T00:15:16;1.50;;;0.65;;
31760;SDS011;18335;51.486;7.562;2022-12-29T00:18:00;0.80;;;0.50;;
31760;SDS011;18335;51.486;7.562;2022-12-29T00:20:27;1.48;;;0.70;;
31760;SDS011;18335;51.486;7.562;2022-12-29T00:23:11;4.55;;;0.82;;
31760;SDS011;18335;51.486;7.562;2022-12-29T00:25:57;1.95;;;0.70;;
31760;SDS011;18335;51.486;7.562;2022-12-29T00:28:41;1.08;;;0.63;;
31760;SDS011;18335;51.486;7.562;2022-12-29T00:31:26;2.90;;;0.80;;
31760;SDS011;18335;51.486;7.562;2022-12-29T00:34:10;3.83;;;1.50;;
31760;SDS011;18335;51.486;7.562;2022-12-29T00:36:55;3.92;;;0.80;;
31760;SDS011;18335;51.486;7.562;2022-12-29T00:39:23;1.50;;;0.70;;
31760;SDS011;18335;51.486;7.562;2022-12-29T00:42:08;1.90;;;0.50;;
31760;SDS011;18335;51.486;7.562;2022-12-29T00:44:58;2.22;;;0.85;;
31760;SDS011;18335;51.486;7.562;2022-12-29T00:47:25;1.55;;;0.63;;
31760;SDS011;18335;51.486;7.562;2022-12-29T00:49:52;1.80;;;0.60;;
31760;SDS011;18335;51.486;7.562;2022-12-29T00:52:18;1.50;;;0.60;;
31760;SDS011;18335;51.486;7.562;2022-12-29T00:54:45;2.80;;;0.82;;
31760;SDS011;18335;51.486;7.562;2022-12-29T00:57:13;1.02;;;0.43;;
31760;SDS011;18335;51.486;7.562;2022-12-29T00:59:41;0.98;;;0.40;;
31760;SDS011;18335;51.486;7.562;2022-12-29T01:02:08;1.33;;;0.60;;
31760;SDS011;18335;51.486;7.562;2022-12-29T01:04:36;1.48;;;0.60;;
31760;SDS011;18335;51.486;7.562;2022-12-29T01:07:03;2.88;;;0.52;;
31760;SDS011;18335;51.486;7.562;2022-12-29T01:09:30;1.40;;;0.40;;
31760;SDS011;18335;51.486;7.562;2022-12-29T01:12:17;2.70;;;0.88;;
31760;SDS011;18335;51.486;7.562;2022-12-29T01:15:06;1.38;;;0.40;;
31760;SDS011;18335;51.486;7.562;2022-12-29T01:17:34;1.08;;;0.40;;
31760;SDS011;18335;51.486;7.562;2022-12-29T01:20:02;0.70;;;0.30;;
31760;SDS011;18335;51.486;7.562;2022-12-29T01:22:30;0.82;;;0.40;;
31760;SDS011;18335;51.486;7.562;2022-12-29T01:24:57;1.75;;;0.40;;
31760;SDS011;18335;51.486;7.562;2022-12-29T01:27:25;1.05;;;0.30;;
31760;SDS011;18335;51.486;7.562;2022-12-29T01:29:52;1.42;;;0.40;;
31760;SDS011;18335;51.486;7.562;2022-12-29T01:32:19;2.90;;;0.50;;
31760;SDS011;18335;51.486;7.562;2022-12-29T01:34:46;2.30;;;0.28;;
31760;SDS011;18335;51.486;7.562;2022-12-29T01:37:12;2.50;;;0.60;;
31760;SDS011;18335;51.486;7.562;2022-12-29T01:39:39;0.85;;;0.40;;
31760;SDS011;18335;51.486;7.562;2022-12-29T01:42:08;2.25;;;0.40;;
31760;SDS011;18335;51.486;7.562;2022-12-29T01:44:52;0.85;;;0.40;;
31760;SDS011;18335;51.486;7.562;2022-12-29T01:47:22;0.73;;;0.30;;
31760;SDS011;18335;51.486;7.562;2022-12-29T01:49:55;0.52;;;0.22;;
31760;SDS011;18335;51.486;7.562;2022-12-29T01:52:24;1.33;;;0.30;;
31760;SDS011;18335;51.486;7.562;2022-12-29T01:54:55;0.88;;;0.30;;
31760;SDS011;18335;51.486;7.562;2022-12-29T01:57:24;0.70;;;0.40;;
31760;SDS011;18335;51.486;7.562;2022-12-29T01:59:56;0.75;;;0.30;;
31760;SDS011;18335;51.486;7.562;2022-12-29T02:02:26;0.50;;;0.20;;
31760;SDS011;18335;51.486;7.562;2022-12-29T02:04:54;0.70;;;0.30;;
31760;SDS011;18335;51.486;7.562;2022-12-29T02:07:24;1.00;;;0.20;;
31760;SDS011;18335;51.486;7.562;2022-12-29T02:09:54;2.25;;;0.40;;
31760;SDS011;18335;51.486;7.562;2022-12-29T02:12:22;2.35;;;0.60;;
31760;SDS011;18335;51.486;7.562;2022-12-29T02:14:50;0.47;;;0.20;;
31760;SDS011;18335;51.486;7.562;2022-12-29T02:17:23;0.80;;;0.38;;
31760;SDS011;18335;51.486;7.562;2022-12-29T02:26:21;0.40;;;0.25;;
31760;SDS011;18335;51.486;7.562;2022-12-29T02:32:21;0.98;;;0.35;;
31760;SDS011;18335;51.486;7.562;2022-12-29T02:34:54;1.23;;;0.30;;
31760;SDS011;18335;51.486;7.562;2022-12-29T02:37:29;1.20;;;0.50;;
31760;SDS011;18335;51.486;7.562;2022-12-29T02:40:05;0.30;;;0.20;;
31760;SDS011;18335;51.486;7.562;2022-12-29T02:42:42;0.75;;;0.28;;
31760;SDS011;18335;51.486;7.562;2022-12-29T02:45:15;0.85;;;0.32;;
31760;SDS011;18335;51.486;7.562;2022-12-29T02:47:49;0.85;;;0.30;;
31760;SDS011;18335;51.486;7.562;2022-12-29T02:50:22;0.80;;;0.30;;
31760;SDS011;18335;51.486;7.562;2022-12-29T02:52:54;1.40;;;0.40;;
31760;SDS011;18335;51.486;7.562;2022-12-29T02:55:25;1.25;;;0.30;;
31760;SDS011;18335;51.486;7.562;2022-12-29T02:58:05;1.17;;;0.22;;
31760;SDS011;18335;51.486;7.562;2022-12-29T03:00:46;2.17;;;0.30;;
31760;SDS011;18335;51.486;7.562;2022-12-29T03:03:24;0.52;;;0.28;;
31760;SDS011;18335;51.486;7.562;2022-12-29T03:06:06;0.35;;;0.20;;
31760;SDS011;18335;51.486;7.562;2022-12-29T03:08:44;1.17;;;0.30;;
31760;SDS011;18335;51.486;7.562;2022-12-29T03:11:19;1.42;;;0.40;;
31760;SDS011;18335;51.486;7.562;2022-12-29T03:14:03;2.35;;;0.38;;
31760;SDS011;18335;51.486;7.562;2022-12-29T03:16:53;1.58;;;0.40;;
31760;SDS011;18335;51.486;7.562;2022-12-29T03:19:28;2.13;;;0.50;;
31760;SDS011;18335;51.486;7.562;2022-12-29T03:22:00;1.05;;;0.30;;
31760;SDS011;18335;51.486;7.562;2022-12-29T03:24:54;1.20;;;0.50;;
31760;SDS011;18335;51.486;7.562;2022-12-29T03:27:25;1.27;;;0.50;;
31760;SDS011;18335;51.486;7.562;2022-12-29T03:29:57;2.05;;;0.40;;
31760;SDS011;18335;51.486;7.562;2022-12-29T03:32:29;2.28;;;0.40;;
31760;SDS011;18335;51.486;7.562;2022-12-29T03:35:01;2.30;;;0.43;;
31760;SDS011;18335;51.486;7.562;2022-12-29T03:37:30;2.38;;;0.60;;
31760;SDS011;18335;51.486;7.562;2022-12-29T03:40:02;4.78;;;0.80;;
31760;SDS011;18335;51.486;7.562;2022-12-29T03:42:30;2.90;;;0.57;;
31760;SDS011;18335;51.486;7.562;2022-12-29T03:45:00;1.15;;;0.40;;
31760;SDS011;18335;51.486;7.562;2022-12-29T03:47:27;3.70;;;0.47;;
31760;SDS011;18335;51.486;7.562;2022-12-29T03:49:54;3.13;;;0.63;;
31760;SDS011;18335;51.486;7.562;2022-12-29T03:52:22;0.80;;;0.30;;
31760;SDS011;18335;51.486;7.562;2022-12-29T03:54:51;1.35;;;0.50;;
31760;SDS011;18335;51.486;7.562;2022-12-29T03:57:18;3.50;;;0.40;;
31760;SDS011;18335;51.486;7.562;2022-12-29T03:59:53;4.68;;;0.95;;
31760;SDS011;18335;51.486;7.562;2022-12-29T04:02:20;2.85;;;0.68;;
31760;SDS011;18335;51.486;7.562;2022-12-29T04:04:47;2.30;;;0.60;;
31760;SDS011;18335;51.486;7.562;2022-12-29T04:07:14;1.30;;;0.43;;
31760;SDS011;18335;51.486;7.562;2022-12-29T04:09:42;1.48;;;0.50;;
31760;SDS011;18335;51.486;7.562;2022-12-29T04:12:14;0.68;;;0.50;;
31760;SDS011;18335;51.486;7.562;2022-12-29T04:14:41;2.20;;;0.60;;
31760;SDS011;18335;51.486;7.562;2022-12-29T04:17:08;2.33;;;0.50;;
31760;SDS011;18335;51.486;7.562;2022-12-29T04:19:34;0.80;;;0.50;;
31760;SDS011;18335;51.486;7.562;2022-12-29T04:22:01;1.85;;;0.47;;
31760;SDS011;18335;51.486;7.562;2022-12-29T04:24:28;0.73;;;0.40;;
31760;SDS011;18335;51.486;7.562;2022-12-29T04:26:56;2.35;;;0.50;;
31760;SDS011;18335;51.486;7.562;2022-12-29T04:29:23;2.28;;;0.57;;
31760;SDS011;18335;51.486;7.562;2022-12-29T04:32:02;1.90;;;0.40;;
31760;SDS011;18335;51.486;7.562;2022-12-29T04:34:32;1.42;;;0.50;;
31760;SDS011;18335;51.486;7.562;2022-12-29T04:36:58;2.63;;;0.40;;
31760;SDS011;18335;51.486;7.562;2022-12-29T04:39:26;0.82;;;0.60;;
31760;SDS011;18335;51.486;7.562;2022-12-29T04:41:53;1.20;;;0.22;;
31760;SDS011;18335;51.486;7.562;2022-12-29T04:44:22;1.25;;;0.50;;
31760;SDS011;18335;51.486;7.562;2022-12-29T04:46:51;3.78;;;0.52;;
31760;SDS011;18335;51.486;7.562;2022-12-29T04:49:31;0.43;;;0.30;;
31760;SDS011;18335;51.486;7.562;2022-12-29T04:52:14;1.38;;;0.40;;
31760;SDS011;18335;51.486;7.562;2022-12-29T04:54:43;2.53;;;0.40;;
31760;SDS011;18335;51.486;7.562;2022-12-29T04:57:15;3.10;;;0.60;;
31760;SDS011;18335;51.486;7.562;2022-12-29T04:59:47;0.82;;;0.50;;
31760;SDS011;18335;51.486;7.562;2022-12-29T05:02:14;2.28;;;0.35;;
31760;SDS011;18335;51.486;7.562;2022-12-29T05:04:41;1.45;;;0.40;;
31760;SDS011;18335;51.486;7.562;2022-12-29T05:07:09;2.35;;;0.40;;
31760;SDS011;18335;51.486;7.562;2022-12-29T05:09:36;0.60;;;0.25;;
31760;SDS011;18335;51.486;7.562;2022-12-29T05:12:04;2.13;;;0.50;;
31760;SDS011;18335;51.486;7.562;2022-12-29T05:14:32;1.00;;;0.40;;
31760;SDS011;18335;51.486;7.562;2022-12-29T05:17:00;1.88;;;0.40;;
31760;SDS011;18335;51.486;7.562;2022-12-29T05:19:27;1.08;;;0.50;;
31760;SDS011;18335;51.486;7.562;2022-12-29T05:21:54;1.95;;;0.50;;
31760;SDS011;18335;51.486;7.562;2022-12-29T05:24:21;3.90;;;0.80;;
31760;SDS011;18335;51.486;7.562;2022-12-29T05:26:50;1.35;;;0.50;;
31760;SDS011;18335;51.486;7.562;2022-12-29T05:29:37;1.05;;;0.30;;
31760;SDS011;18335;51.486;7.562;2022-12-29T05:32:05;1.75;;;0.60;;
31760;SDS011;18335;51.486;7.562;2022-12-29T05:34:32;1.85;;;0.68;;
31760;SDS011;18335;51.486;7.562;2022-12-29T05:36:59;2.20;;;0.50;;
31760;SDS011;18335;51.486;7.562;2022-12-29T05:39:27;2.28;;;0.57;;
31760;SDS011;18335;51.486;7.562;2022-12-29T05:41:58;2.60;;;0.50;;
31760;SDS011;18335;51.486;7.562;2022-12-29T05:44:40;1.00;;;0.38;;
31760;SDS011;18335;51.486;7.562;2022-12-29T05:47:32;3.38;;;0.50;;
31760;SDS011;18335;51.486;7.562;2022-12-29T05:50:19;2.42;;;0.50;;
31760;SDS011;18335;51.486;7.562;2022-12-29T05:53:07;2.67;;;0.70;;
31760;SDS011;18335;51.486;7.562;2022-12-29T05:55:35;6.40;;;2.42;;
31760;SDS011;18335;51.486;7.562;2022-12-29T05:58:02;3.40;;;0.75;;
31760;SDS011;18335;51.486;7.562;2022-12-29T06:00:30;1.85;;;0.70;;
31760;SDS011;18335;51.486;7.562;2022-12-29T06:02:59;1.27;;;0.35;;
31760;SDS011;18335;51.486;7.562;2022-12-29T06:05:25;1.90;;;0.40;;
31760;SDS011;18335;51.486;7.562;2022-12-29T06:07:52;1.30;;;0.55;;
31760;SDS011;18335;51.486;7.562;2022-12-29T06:10:19;3.30;;;0.68;;
31760;SDS011;18335;51.486;7.562;2022-12-29T06:12:52;1.38;;;0.40;;
31760;SDS011;18335;51.486;7.562;2022-12-29T06:15:19;5.70;;;0.47;;
31760;SDS011;18335;51.486;7.562;2022-12-29T06:17:48;1.85;;;0.57;;
31760;SDS011;18335;51.486;7.562;2022-12-29T06:20:16;2.28;;;0.50;;
31760;SDS011;18335;51.486;7.562;2022-12-29T06:22:42;2.60;;;0.63;;
31760;SDS011;18335;51.486;7.562;2022-12-29T06:25:11;3.78;;;1.13;;
31760;SDS011;18335;51.486;7.562;2022-12-29T06:27:39;1.80;;;0.50;;
31760;SDS011;18335;51.486;7.562;2022-12-29T06:30:06;1.83;;;0.50;;
31760;SDS011;18335;51.486;7.562;2022-12-29T06:32:36;2.85;;;0.70;;
31760;SDS011;18335;51.486;7.562;2022-12-29T06:35:06;1.98;;;0.50;;
31760;SDS011;18335;51.486;7.562;2022-12-29T06:37:40;3.65;;;0.65;;
31760;SDS011;18335;51.486;7.562;2022-12-29T06:40:07;5.22;;;0.77;;
31760;SDS011;18335;51.486;7.562;2022-12-29T06:43:06;2.50;;;0.57;;
31760;SDS011;18335;51.486;7.562;2022-12-29T06:46:12;4.22;;;0.73;;
31760;SDS011;18335;51.486;7.562;2022-12-29T06:48:39;5.18;;;0.55;;
31760;SDS011;18335;51.486;7.562;2022-12-29T06:51:07;3.60;;;1.40;;
31760;SDS011;18335;51.486;7.562;2022-12-29T06:53:35;4.35;;;0.73;;
31760;SDS011;18335;51.486;7.562;2022-12-29T06:56:02;3.92;;;0.55;;
31760;SDS011;18335;51.486;7.562;2022-12-29T06:58:29;5.30;;;0.88;;
31760;SDS011;18335;51.486;7.562;2022-12-29T07:00:55;3.17;;;0.60;;
31760;SDS011;18335;51.486;7.562;2022-12-29T07:03:23;1.75;;;0.50;;
31760;SDS011;18335;51.486;7.562;2022-12-29T07:05:50;3.13;;;0.70;;
31760;SDS011;18335;51.486;7.562;2022-12-29T07:08:17;1.45;;;0.50;;
31760;SDS011;18335;51.486;7.562;2022-12-29T07:10:45;4.20;;;0.82;;
31760;SDS011;18335;51.486;7.562;2022-12-29T07:13:12;3.40;;;0.60;;
31760;SDS011;18335;51.486;7.562;2022-12-29T07:15:39;2.55;;;0.88;;
31760;SDS011;18335;51.486;7.562;2022-12-29T07:18:05;3.88;;;0.77;;
31760;SDS011;18335;51.486;7.562;2022-12-29T07:20:32;2.85;;;0.50;;
31760;SDS011;18335;51.486;7.562;2022-12-29T07:22:59;2.30;;;0.60;;
31760;SDS011;18335;51.486;7.562;2022-12-29T07:25:25;3.70;;;0.63;;
31760;SDS011;18335;51.486;7.562;2022-12-29T07:27:54;4.60;;;0.65;;
31760;SDS011;18335;51.486;7.562;2022-12-29T07:30:21;3.35;;;1.23;;
31760;SDS011;18335;51.486;7.562;2022-12-29T07:32:47;2.83;;;0.47;;
31760;SDS011;18335;51.486;7.562;2022-12-29T07:35:14;5.07;;;0.70;;
31760;SDS011;18335;51.486;7.562;2022-12-29T07:37:41;5.07;;;0.70;;
31760;SDS011;18335;51.486;7.562;2022-12-29T07:40:08;4.13;;;0.90;;
31760;SDS011;18335;51.486;7.562;2022-12-29T07:42:35;4.15;;;1.05;;
31760;SDS011;18335;51.486;7.562;2022-12-29T07:45:08;4.40;;;0.70;;
31760;SDS011;18335;51.486;7.562;2022-12-29T07:47:47;5.30;;;0.80;;
31760;SDS011;18335;51.486;7.562;2022-12-29T07:50:14;5.75;;;0.88;;
31760;SDS011;18335;51.486;7.562;2022-12-29T07:52:40;3.80;;;1.60;;
31760;SDS011;18335;51.486;7.562;2022-12-29T07:55:08;4.68;;;0.68;;
31760;SDS011;18335;51.486;7.562;2022-12-29T07:57:35;3.22;;;0.60;;
31760;SDS011;18335;51.486;7.562;2022-12-29T08:00:02;3.60;;;0.60;;
31760;SDS011;18335;51.486;7.562;2022-12-29T08:02:38;5.97;;;0.80;;
31760;SDS011;18335;51.486;7.562;2022-12-29T08:05:05;4.93;;;0.65;;
31760;SDS011;18335;51.486;7.562;2022-12-29T08:07:32;2.28;;;0.68;;
31760;SDS011;18335;51.486;7.562;2022-12-29T08:09:59;8.27;;;1.00;;
31760;SDS011;18335;51.486;7.562;2022-12-29T08:12:26;4.80;;;1.02;;
31760;SDS011;18335;51.486;7.562;2022-12-29T08:14:53;4.15;;;0.90;;
31760;SDS011;18335;51.486;7.562;2022-12-29T08:17:20;5.78;;;0.90;;
31760;SDS011;18335;51.486;7.562;2022-12-29T08:19:48;4.47;;;0.90;;
31760;SDS011;18335;51.486;7.562;2022-12-29T08:22:15;4.47;;;1.42;;
31760;SDS011;18335;51.486;7.562;2022-12-29T08:24:42;2.45;;;0.73;;
31760;SDS011;18335;51.486;7.562;2022-12-29T08:27:09;3.05;;;0.60;;
31760;SDS011;18335;51.486;7.562;2022-12-29T08:29:35;3.63;;;1.00;;
31760;SDS011;18335;51.486;7.562;2022-12-29T08:32:02;4.97;;;0.90;;
31760;SDS011;18335;51.486;7.562;2022-12-29T08:34:30;4.60;;;1.33;;
31760;SDS011;18335;51.486;7.562;2022-12-29T08:36:58;4.55;;;0.80;;
31760;SDS011;18335;51.486;7.562;2022-12-29T08:39:24;8.93;;;1.45;;
31760;SDS011;18335;51.486;7.562;2022-12-29T08:41:51;4.13;;;0.90;;
31760;SDS011;18335;51.486;7.562;2022-12-29T08:44:18;8.00;;;1.25;;
31760;SDS011;18335;51.486;7.562;2022-12-29T08:46:45;3.03;;;0.73;;
31760;SDS011;18335;51.486;7.562;2022-12-29T08:49:11;5.93;;;0.93;;
31760;SDS011;18335;51.486;7.562;2022-12-29T08:51:38;7.38;;;0.88;;
31760;SDS011;18335;51.486;7.562;2022-12-29T08:54:06;5.90;;;0.95;;
31760;SDS011;18335;51.486;7.562;2022-12-29T08:56:33;6.43;;;1.27;;
31760;SDS011;18335;51.486;7.562;2022-12-29T08:59:00;5.15;;;1.48;;
31760;SDS011;18335;51.486;7.562;2022-12-29T09:01:29;3.92;;;0.90;;
31760;SDS011;18335;51.486;7.562;2022-12-29T09:03:56;3.15;;;0.70;;
31760;SDS011;18335;51.486;7.562;2022-12-29T09:06:23;2.83;;;0.80;;
31760;SDS011;18335;51.486;7.562;2022-12-29T09:08:49;3.53;;;0.65;;
31760;SDS011;18335;51.486;7.562;2022-12-29T09:11:18;8.73;;;1.08;;
31760;SDS011;18335;51.486;7.562;2022-12-29T09:13:47;4.20;;;0.88;;
31760;SDS011;18335;51.486;7.562;2022-12-29T09:16:15;7.13;;;1.10;;
31760;SDS011;18335;51.486;7.562;2022-12-29T09:18:43;6.78;;;0.75;;
31760;SDS011;18335;51.486;7.562;2022-12-29T09:21:10;3.58;;;0.60;;
31760;SDS011;18335;51.486;7.562;2022-12-29T09:23:37;4.25;;;0.70;;
31760;SDS011;18335;51.486;7.562;2022-12-29T09:26:05;5.95;;;1.35;;
31760;SDS011;18335;51.486;7.562;2022-12-29T09:28:33;7.75;;;1.30;;
31760;SDS011;18335;51.486;7.562;2022-12-29T09:31:00;6.15;;;0.73;;
31760;SDS011;18335;51.486;7.562;2022-12-29T09:33:27;8.27;;;1.10;;
31760;SDS011;18335;51.486;7.562;2022-12-29T09:35:55;5.20;;;0.88;;
31760;SDS011;18335;51.486;7.562;2022-12-29T09:38:23;8.40;;;1.13;;
31760;SDS011;18335;51.486;7.562;2022-12-29T09:40:51;7.28;;;1.30;;
31760;SDS011;18335;51.486;7.562;2022-12-29T09:43:24;6.50;;;1.02;;
31760;SDS011;18335;51.486;7.562;2022-12-29T09:46:08;7.85;;;1.13;;
31760;SDS011;18335;51.486;7.562;2022-12-29T09:48:45;5.70;;;0.90;;
31760;SDS011;18335;51.486;7.562;2022-12-29T09:51:17;4.00;;;1.17;;
31760;SDS011;18335;51.486;7.562;2022-12-29T09:53:51;5.38;;;0.82;;
31760;SDS011;18335;51.486;7.562;2022-12-29T09:56:23;6.95;;;1.73;;
31760;SDS011;18335;51.486;7.562;2022-12-29T09:58:52;6.07;;;1.10;;
31760;SDS011;18335;51.486;7.562;2022-12-29T10:01:28;13.23;;;1.73;;
31760;SDS011;18335;51.486;7.562;2022-12-29T10:03:57;11.85;;;1.30;;
31760;SDS011;18335;51.486;7.562;2022-12-29T10:06:31;7.30;;;1.08;;
31760;SDS011;18335;51.486;7.562;2022-12-29T10:09:02;5.13;;;1.05;;
31760;SDS011;18335;51.486;7.562;2022-12-29T10:11:41;3.72;;;1.13;;
31760;SDS011;18335;51.486;7.562;2022-12-29T10:14:25;5.75;;;1.40;;
31760;SDS011;18335;51.486;7.562;2022-12-29T10:17:08;5.88;;;1.70;;
31760;SDS011;18335;51.486;7.562;2022-12-29T10:19:48;8.10;;;1.50;;
31760;SDS011;18335;51.486;7.562;2022-12-29T10:22:30;10.88;;;1.88;;
31760;SDS011;18335;51.486;7.562;2022-12-29T10:25:08;8.88;;;1.30;;
31760;SDS011;18335;51.486;7.562;2022-12-29T10:30:11;11.48;;;1.13;;
31760;SDS011;18335;51.486;7.562;2022-12-29T10:32:42;7.60;;;1.00;;
31760;SDS011;18335;51.486;7.562;2022-12-29T10:35:14;6.90;;;1.00;;
31760;SDS011;18335;51.486;7.562;2022-12-29T10:37:45;9.20;;;1.48;;
31760;SDS011;18335;51.486;7.562;2022-12-29T10:40:19;8.60;;;1.20;;
31760;SDS011;18335;51.486;7.562;2022-12-29T10:42:52;5.15;;;1.10;;
31760;SDS011;18335;51.486;7.562;2022-12-29T10:45:19;9.45;;;1.70;;
31760;SDS011;18335;51.486;7.562;2022-12-29T10:47:52;6.72;;;1.65;;
31760;SDS011;18335;51.486;7.562;2022-12-29T10:50:22;5.78;;;0.98;;
31760;SDS011;18335;51.486;7.562;2022-12-29T10:52:51;9.13;;;1.73;;
31760;SDS011;18335;51.486;7.562;2022-12-29T10:55:19;7.60;;;1.30;;
31760;SDS011;18335;51.486;7.562;2022-12-29T10:57:48;8.40;;;1.38;;
31760;SDS011;18335;51.486;7.562;2022-12-29T11:00:17;9.35;;;2.13;;
31760;SDS011;18335;51.486;7.562;2022-12-29T11:02:49;5.60;;;1.25;;
31760;SDS011;18335;51.486;7.562;2022-12-29T11:05:33;5.38;;;1.42;;
31760;SDS011;18335;51.486;7.562;2022-12-29T11:08:04;9.65;;;1.85;;
31760;SDS011;18335;51.486;7.562;2022-12-29T11:10:37;9.02;;;1.20;;
31760;SDS011;18335;51.486;7.562;2022-12-29T11:13:10;7.25;;;1.17;;
31760;SDS011;18335;51.486;7.562;2022-12-29T11:15:39;6.25;;;1.02;;
31760;SDS011;18335;51.486;7.562;2022-12-29T11:18:18;8.50;;;1.42;;
31760;SDS011;18335;51.486;7.562;2022-12-29T11:20:47;9.60;;;1.52;;
31760;SDS011;18335;51.486;7.562;2022-12-29T11:23:25;10.05;;;1.67;;
31760;SDS011;18335;51.486;7.562;2022-12-29T11:26:07;8.50;;;1.65;;
31760;SDS011;18335;51.486;7.562;2022-12-29T11:28:40;8.85;;;1.55;;
31760;SDS011;18335;51.486;7.562;2022-12-29T11:31:08;7.53;;;1.33;;
31760;SDS011;18335;51.486;7.562;2022-12-29T11:33:37;9.43;;;1.33;;
31760;SDS011;18335;51.486;7.562;2022-12-29T11:36:05;6.28;;;1.15;;
31760;SDS011;18335;51.486;7.562;2022-12-29T11:38:34;12.63;;;1.98;;
31760;SDS011;18335;51.486;7.562;2022-12-29T11:41:02;14.70;;;2.17;;
31760;SDS011;18335;51.486;7.562;2022-12-29T11:43:32;7.75;;;1.20;;
31760;SDS011;18335;51.486;7.562;2022-12-29T11:46:02;9.57;;;1.23;;
31760;SDS011;18335;51.486;7.562;2022-12-29T11:48:32;7.70;;;1.30;;
31760;SDS011;18335;51.486;7.562;2022-12-29T11:51:06;5.72;;;1.25;;
31760;SDS011;18335;51.486;7.562;2022-12-29T11:53:36;6.32;;;1.08;;
31760;SDS011;18335;51.486;7.562;2022-12-29T11:56:07;7.95;;;1.02;;
31760;SDS011;18335;51.486;7.562;2022-12-29T11:58:37;5.63;;;1.13;;
31760;SDS011;18335;51.486;7.562;2022-12-29T12:01:05;5.47;;;1.20;;
31760;SDS011;18335;51.486;7.562;2022-12-29T12:03:37;7.18;;;1.55;;
31760;SDS011;18335;51.486;7.562;2022-12-29T12:06:14;5.40;;;1.23;;
31760;SDS011;18335;51.486;7.562;2022-12-29T12:08:46;8.68;;;1.20;;
31760;SDS011;18335;51.486;7.562;2022-12-29T12:11:18;10.23;;;1.13;;
31760;SDS011;18335;51.486;7.562;2022-12-29T12:13:52;9.80;;;1.35;;
31760;SDS011;18335;51.486;7.562;2022-12-29T12:16:31;8.63;;;1.52;;
31760;SDS011;18335;51.486;7.562;2022-12-29T12:19:02;8.27;;;1.42;;
31760;SDS011;18335;51.486;7.562;2022-12-29T12:21:40;7.78;;;1.45;;
31760;SDS011;18335;51.486;7.562;2022-12-29T12:24:16;5.70;;;1.20;;
31760;SDS011;18335;51.486;7.562;2022-12-29T12:26:58;11.45;;;1.98;;
31760;SDS011;18335;51.486;7.562;2022-12-29T12:29:32;10.38;;;1.48;;
31760;SDS011;18335;51.486;7.562;2022-12-29T12:32:08;6.43;;;1.67;;
31760;SDS011;18335;51.486;7.562;2022-12-29T12:34:41;16.23;;;2.22;;
31760;SDS011;18335;51.486;7.562;2022-12-29T12:37:15;12.63;;;1.45;;
31760;SDS011;18335;51.486;7.562;2022-12-29T12:40:00;9.52;;;1.45;;
31760;SDS011;18335;51.486;7.562;2022-12-29T12:42:41;5.80;;;1.17;;
31760;SDS011;18335;51.486;7.562;2022-12-29T12:45:26;9.43;;;1.77;;
31760;SDS011;18335;51.486;7.562;2022-12-29T12:48:04;6.32;;;1.40;;
31760;SDS011;18335;51.486;7.562;2022-12-29T12:50:46;11.85;;;1.20;;
31760;SDS011;18335;51.486;7.562;2022-12-29T12:53:28;12.00;;;1.40;;
31760;SDS011;18335;51.486;7.562;2022-12-29T12:56:07;5.55;;;0.80;;
31760;SDS011;18335;51.486;7.562;2022-12-29T12:58:48;5.75;;;1.05;;
31760;SDS011;18335;51.486;7.562;2022-12-29T13:01:24;7.13;;;1.27;;
31760;SDS011;18335;51.486;7.562;2022-12-29T13:04:09;8.43;;;1.20;;
31760;SDS011;18335;51.486;7.562;2022-12-29T13:06:50;7.53;;;1.95;;
31760;SDS011;18335;51.486;7.562;2022-12-29T13:09:33;7.05;;;1.13;;
31760;SDS011;18335;51.486;7.562;2022-12-29T13:12:16;15.52;;;2.05;;
31760;SDS011;18335;51.486;7.562;2022-12-29T13:14:53;7.13;;;1.48;;
31760;SDS011;18335;51.486;7.562;2022-12-29T13:17:30;9.48;;;1.17;;
31760;SDS011;18335;51.486;7.562;2022-12-29T13:20:02;11.32;;;1.73;;
31760;SDS011;18335;51.486;7.562;2022-12-29T13:22:43;7.32;;;1.10;;
31760;SDS011;18335;51.486;7.562;2022-12-29T13:25:19;10.88;;;2.05;;
31760;SDS011;18335;51.486;7.562;2022-12-29T13:27:54;10.93;;;2.85;;
31760;SDS011;18335;51.486;7.562;2022-12-29T13:30:28;9.25;;;1.90;;
31760;SDS011;18335;51.486;7.562;2022-12-29T13:33:00;8.30;;;1.42;;
31760;SDS011;18335;51.486;7.562;2022-12-29T13:35:41;10.88;;;1.33;;
31760;SDS011;18335;51.486;7.562;2022-12-29T13:38:17;9.38;;;2.15;;
31760;SDS011;18335;51.486;7.562;2022-12-29T13:40:50;7.57;;;1.48;;
31760;SDS011;18335;51.486;7.562;2022-12-29T13:43:20;12.85;;;1.98;;
31760;SDS011;18335;51.486;7.562;2022-12-29T13:45:49;6.82;;;1.17;;
31760;SDS011;18335;51.486;7.562;2022-12-29T13:48:24;7.22;;;1.20;;
31760;SDS011;18335;51.486;7.562;2022-12-29T13:51:01;8.82;;;1.25;;
31760;SDS011;18335;51.486;7.562;2022-12-29T13:53:30;10.73;;;2.25;;
31760;SDS011;18335;51.486;7.562;2022-12-29T13:56:07;6.53;;;1.02;;
31760;SDS011;18335;51.486;7.562;2022-12-29T13:58:38;8.65;;;1.50;;
31760;SDS011;18335;51.486;7.562;2022-12-29T14:01:11;9.85;;;1.83;;
31760;SDS011;18335;51.486;7.562;2022-12-29T14:03:47;7.53;;;1.35;;
31760;SDS011;18335;51.486;7.562;2022-12-29T14:06:20;8.38;;;1.10;;
31760;SDS011;18335;51.486;7.562;2022-12-29T14:08:49;10.40;;;1.55;;
31760;SDS011;18335;51.486;7.562;2022-12-29T14:11:21;6.22;;;1.20;;
31760;SDS011;18335;51.486;7.562;2022-12-29T14:13:53;9.95;;;1.60;;
31760;SDS011;18335;51.486;7.562;2022-12-29T14:16:27;16.58;;;1.63;;
31760;SDS011;18335;51.486;7.562;2022-12-29T14:18:56;11.15;;;1.42;;
31760;SDS011;18335;51.486;7.562;2022-12-29T14:21:31;8.13;;;1.63;;
31760;SDS011;18335;51.486;7.562;2022-12-29T14:26:55;10.32;;;1.75;;
31760;SDS011;18335;51.486;7.562;2022-12-29T14:38:16;10.30;;;1.95;;
31760;SDS011;18335;51.486;7.562;2022-12-29T14:40:45;6.47;;;1.27;;
31760;SDS011;18335;51.486;7.562;2022-12-29T14:43:16;11.45;;;1.92;;
31760;SDS011;18335;51.486;7.562;2022-12-29T14:45:51;7.63;;;1.40;;
31760;SDS011;18335;51.486;7.562;2022-12-29T14:48:29;14.77;;;1.77;;
31760;SDS011;18335;51.486;7.562;2022-12-29T14:51:00;11.75;;;1.45;;
31760;SDS011;18335;51.486;7.562;2022-12-29T14:53:44;11.57;;;1.98;;
31760;SDS011;18335;51.486;7.562;2022-12-29T14:56:14;12.57;;;1.83;;
31760;SDS011;18335;51.486;7.562;2022-12-29T14:58:46;6.80;;;1.20;;
31760;SDS011;18335;51.486;7.562;2022-12-29T15:01:18;7.25;;;0.85;;
31760;SDS011;18335;51.486;7.562;2022-12-29T15:03:49;5.90;;;1.02;;
31760;SDS011;18335;51.486;7.562;2022-12-29T15:06:18;4.78;;;1.30;;
31760;SDS011;18335;51.486;7.562;2022-12-29T15:08:49;8.88;;;1.10;;
31760;SDS011;18335;51.486;7.562;2022-12-29T15:11:19;8.45;;;1.48;;
31760;SDS011;18335;51.486;7.562;2022-12-29T15:13:48;7.10;;;1.00;;
31760;SDS011;18335;51.486;7.562;2022-12-29T15:16:22;7.47;;;1.13;;
31760;SDS011;18335;51.486;7.562;2022-12-29T15:18:51;7.37;;;1.37;;
31760;SDS011;18335;51.486;7.562;2022-12-29T15:21:20;7.15;;;1.13;;
31760;SDS011;18335;51.486;7.562;2022-12-29T15:23:50;9.68;;;1.08;;
31760;SDS011;18335;51.486;7.562;2022-12-29T15:26:17;6.70;;;0.80;;
31760;SDS011;18335;51.486;7.562;2022-12-29T15:28:49;5.57;;;1.17;;
31760;SDS011;18335;51.486;7.562;2022-12-29T15:31:18;9.55;;;2.15;;
31760;SDS011;18335;51.486;7.562;2022-12-29T15:33:47;8.73;;;1.45;;
31760;SDS011;18335;51.486;7.562;2022-12-29T15:36:18;6.45;;;1.08;;